sensor_id;sensor_type;location;lat;lon;timestamp;P1;durP1;ratioP1;P2;durP2;ratioP2
70073;SDS011;57445;51.058;3.698;2023-04-03T00:02:04;13.85;;;6.20;;
70073;SDS011;57445;51.058;3.698;2023-04-03T00:04:38;11.75;;;5.90;;
70073;SDS011;57445;51.058;3.698;2023-04-03T00:07:06;11.10;;;5.93;;
70073;SDS011;57445;51.058;3.698;2023-04-03T00:09:41;8.80;;;5.72;;
70073;SDS011;57445;51.058;3.698;2023-04-03T00:12:13;7.47;;;4.80;;
70073;SDS011;57445;51.058;3.698;2023-04-03T00:14:41;9.32;;;5.65;;
70073;SDS011;57445;51.058;3.698;2023-04-03T00:17:08;11.25;;;6.68;;
70073;SDS011;57445;51.058;3.698;2023-04-03T00:19:40;9.00;;;5.78;;
70073;SDS011;57445;51.058;3.698;2023-04-03T00:22:13;9.57;;;5.85;;
70073;SDS011;57445;51.058;3.698;2023-04-03T00:24:41;10.68;;;5.60;;
70073;SDS011;57445;51.058;3.698;2023-04-03T00:27:08;11.00;;;5.45;;
70073;SDS011;57445;51.058;3.698;2023-04-03T00:29:36;10.27;;;5.50;;
70073;SDS011;57445;51.058;3.698;2023-04-03T00:32:06;9.63;;;5.75;;
70073;SDS011;57445;51.058;3.698;2023-04-03T00:34:34;9.65;;;4.95;;
70073;SDS011;57445;51.058;3.698;2023-04-03T00:37:03;9.52;;;5.47;;
70073;SDS011;57445;51.058;3.698;2023-04-03T00:39:31;11.10;;;5.13;;
70073;SDS011;57445;51.058;3.698;2023-04-03T00:42:04;13.40;;;5.20;;
70073;SDS011;57445;51.058;3.698;2023-04-03T00:47:37;8.90;;;5.47;;
70073;SDS011;57445;51.058;3.698;2023-04-03T00:50:11;9.98;;;5.10;;
70073;SDS011;57445;51.058;3.698;2023-04-03T00:52:44;10.27;;;5.80;;
70073;SDS011;57445;51.058;3.698;2023-04-03T00:55:17;10.35;;;5.90;;
70073;SDS011;57445;51.058;3.698;2023-04-03T00:57:46;9.88;;;5.30;;
70073;SDS011;57445;51.058;3.698;2023-04-03T01:00:21;9.85;;;6.28;;
70073;SDS011;57445;51.058;3.698;2023-04-03T01:02:55;12.60;;;5.90;;
70073;SDS011;57445;51.058;3.698;2023-04-03T01:05:28;10.10;;;5.82;;
70073;SDS011;57445;51.058;3.698;2023-04-03T01:07:57;10.55;;;6.05;;
70073;SDS011;57445;51.058;3.698;2023-04-03T01:10:30;9.57;;;5.60;;
70073;SDS011;57445;51.058;3.698;2023-04-03T01:12:58;11.52;;;5.97;;
70073;SDS011;57445;51.058;3.698;2023-04-03T01:15:27;12.23;;;6.13;;
70073;SDS011;57445;51.058;3.698;2023-04-03T01:23:59;8.48;;;5.40;;
70073;SDS011;57445;51.058;3.698;2023-04-03T01:26:34;12.30;;;5.57;;
70073;SDS011;57445;51.058;3.698;2023-04-03T01:29:02;9.55;;;6.22;;
70073;SDS011;57445;51.058;3.698;2023-04-03T01:31:45;8.75;;;5.80;;
70073;SDS011;57445;51.058;3.698;2023-04-03T01:34:17;13.85;;;6.30;;
70073;SDS011;57445;51.058;3.698;2023-04-03T01:36:49;10.20;;;6.05;;
70073;SDS011;57445;51.058;3.698;2023-04-03T01:39:19;11.45;;;6.15;;
70073;SDS011;57445;51.058;3.698;2023-04-03T01:41:48;10.13;;;6.13;;
70073;SDS011;57445;51.058;3.698;2023-04-03T01:44:15;12.80;;;6.13;;
70073;SDS011;57445;51.058;3.698;2023-04-03T01:46:49;11.05;;;6.30;;
70073;SDS011;57445;51.058;3.698;2023-04-03T01:49:22;11.57;;;6.43;;
70073;SDS011;57445;51.058;3.698;2023-04-03T01:51:50;10.38;;;6.20;;
70073;SDS011;57445;51.058;3.698;2023-04-03T01:54:17;13.73;;;6.13;;
70073;SDS011;57445;51.058;3.698;2023-04-03T01:56:53;8.75;;;5.70;;
70073;SDS011;57445;51.058;3.698;2023-04-03T01:59:21;9.48;;;6.07;;
70073;SDS011;57445;51.058;3.698;2023-04-03T02:01:51;11.32;;;6.10;;
70073;SDS011;57445;51.058;3.698;2023-04-03T02:04:23;10.32;;;5.97;;
70073;SDS011;57445;51.058;3.698;2023-04-03T02:06:51;9.48;;;6.07;;
70073;SDS011;57445;51.058;3.698;2023-04-03T02:09:23;10.77;;;6.22;;
70073;SDS011;57445;51.058;3.698;2023-04-03T02:11:54;12.27;;;6.60;;
70073;SDS011;57445;51.058;3.698;2023-04-03T02:14:22;10.60;;;6.32;;
70073;SDS011;57445;51.058;3.698;2023-04-03T02:16:51;11.57;;;6.45;;
70073;SDS011;57445;51.058;3.698;2023-04-03T02:19:19;9.27;;;6.35;;
70073;SDS011;57445;51.058;3.698;2023-04-03T02:21:47;12.20;;;6.25;;
70073;SDS011;57445;51.058;3.698;2023-04-03T02:24:14;8.75;;;5.82;;
70073;SDS011;57445;51.058;3.698;2023-04-03T02:26:42;12.73;;;6.20;;
70073;SDS011;57445;51.058;3.698;2023-04-03T02:29:17;10.18;;;6.63;;
70073;SDS011;57445;51.058;3.698;2023-04-03T02:31:49;10.60;;;6.25;;
70073;SDS011;57445;51.058;3.698;2023-04-03T02:34:19;10.07;;;6.03;;
70073;SDS011;57445;51.058;3.698;2023-04-03T02:36:46;13.77;;;6.55;;
70073;SDS011;57445;51.058;3.698;2023-04-03T02:39:17;9.45;;;6.55;;
70073;SDS011;57445;51.058;3.698;2023-04-03T02:41:49;10.82;;;6.68;;
70073;SDS011;57445;51.058;3.698;2023-04-03T02:44:22;11.32;;;6.78;;
70073;SDS011;57445;51.058;3.698;2023-04-03T02:46:52;10.85;;;6.43;;
70073;SDS011;57445;51.058;3.698;2023-04-03T02:49:19;11.18;;;6.63;;
70073;SDS011;57445;51.058;3.698;2023-04-03T02:51:47;10.60;;;7.30;;
70073;SDS011;57445;51.058;3.698;2023-04-03T02:54:15;10.98;;;6.57;;
70073;SDS011;57445;51.058;3.698;2023-04-03T02:56:47;12.05;;;6.65;;
70073;SDS011;57445;51.058;3.698;2023-04-03T02:59:19;9.80;;;6.47;;
70073;SDS011;57445;51.058;3.698;2023-04-03T03:01:53;12.77;;;7.03;;
70073;SDS011;57445;51.058;3.698;2023-04-03T03:04:26;10.00;;;6.43;;
70073;SDS011;57445;51.058;3.698;2023-04-03T03:06:53;10.43;;;6.50;;
70073;SDS011;57445;51.058;3.698;2023-04-03T03:09:21;10.48;;;6.38;;
70073;SDS011;57445;51.058;3.698;2023-04-03T03:11:49;13.68;;;6.65;;
70073;SDS011;57445;51.058;3.698;2023-04-03T03:14:17;10.23;;;6.00;;
70073;SDS011;57445;51.058;3.698;2023-04-03T03:16:49;13.38;;;6.97;;
70073;SDS011;57445;51.058;3.698;2023-04-03T03:19:18;10.88;;;6.55;;
70073;SDS011;57445;51.058;3.698;2023-04-03T03:21:46;10.23;;;6.10;;
70073;SDS011;57445;51.058;3.698;2023-04-03T03:24:18;11.05;;;6.28;;
70073;SDS011;57445;51.058;3.698;2023-04-03T03:26:46;9.70;;;5.50;;
70073;SDS011;57445;51.058;3.698;2023-04-03T03:29:17;11.57;;;6.18;;
70073;SDS011;57445;51.058;3.698;2023-04-03T03:31:50;8.90;;;6.30;;
70073;SDS011;57445;51.058;3.698;2023-04-03T03:34:19;10.90;;;6.22;;
70073;SDS011;57445;51.058;3.698;2023-04-03T03:36:51;10.27;;;6.22;;
70073;SDS011;57445;51.058;3.698;2023-04-03T03:39:19;8.07;;;5.45;;
70073;SDS011;57445;51.058;3.698;2023-04-03T03:41:46;8.85;;;5.80;;
70073;SDS011;57445;51.058;3.698;2023-04-03T03:44:20;9.73;;;6.00;;
70073;SDS011;57445;51.058;3.698;2023-04-03T03:46:48;8.57;;;5.68;;
70073;SDS011;57445;51.058;3.698;2023-04-03T03:49:16;10.85;;;6.10;;
70073;SDS011;57445;51.058;3.698;2023-04-03T03:51:45;12.43;;;6.75;;
70073;SDS011;57445;51.058;3.698;2023-04-03T03:54:13;8.75;;;6.25;;
70073;SDS011;57445;51.058;3.698;2023-04-03T03:56:45;10.32;;;5.68;;
70073;SDS011;57445;51.058;3.698;2023-04-03T03:59:13;12.73;;;6.53;;
70073;SDS011;57445;51.058;3.698;2023-04-03T04:01:46;8.77;;;6.40;;
70073;SDS011;57445;51.058;3.698;2023-04-03T04:04:19;9.82;;;6.35;;
70073;SDS011;57445;51.058;3.698;2023-04-03T04:06:49;9.60;;;6.35;;
70073;SDS011;57445;51.058;3.698;2023-04-03T04:09:22;9.68;;;6.13;;
70073;SDS011;57445;51.058;3.698;2023-04-03T04:11:54;9.95;;;6.97;;
70073;SDS011;57445;51.058;3.698;2023-04-03T04:14:26;12.18;;;7.07;;
70073;SDS011;57445;51.058;3.698;2023-04-03T04:16:54;11.40;;;7.00;;
70073;SDS011;57445;51.058;3.698;2023-04-03T04:19:26;10.27;;;6.82;;
70073;SDS011;57445;51.058;3.698;2023-04-03T04:22:00;12.25;;;7.25;;
70073;SDS011;57445;51.058;3.698;2023-04-03T04:24:28;9.88;;;6.75;;
70073;SDS011;57445;51.058;3.698;2023-04-03T04:26:55;11.57;;;6.53;;
70073;SDS011;57445;51.058;3.698;2023-04-03T04:29:28;9.15;;;6.85;;
70073;SDS011;57445;51.058;3.698;2023-04-03T04:32:01;13.45;;;7.00;;
70073;SDS011;57445;51.058;3.698;2023-04-03T04:34:34;13.55;;;7.60;;
70073;SDS011;57445;51.058;3.698;2023-04-03T04:37:03;10.73;;;7.53;;
70073;SDS011;57445;51.058;3.698;2023-04-03T04:39:31;11.75;;;7.15;;
70073;SDS011;57445;51.058;3.698;2023-04-03T04:41:58;14.15;;;7.70;;
70073;SDS011;57445;51.058;3.698;2023-04-03T04:44:31;10.25;;;7.60;;
70073;SDS011;57445;51.058;3.698;2023-04-03T04:46:58;12.98;;;7.72;;
70073;SDS011;57445;51.058;3.698;2023-04-03T04:49:26;13.80;;;7.50;;
70073;SDS011;57445;51.058;3.698;2023-04-03T04:51:58;11.82;;;7.43;;
70073;SDS011;57445;51.058;3.698;2023-04-03T04:54:28;11.95;;;7.57;;
70073;SDS011;57445;51.058;3.698;2023-04-03T04:57:00;13.00;;;7.60;;
70073;SDS011;57445;51.058;3.698;2023-04-03T04:59:28;14.93;;;8.15;;
70073;SDS011;57445;51.058;3.698;2023-04-03T05:02:00;12.02;;;7.78;;
70073;SDS011;57445;51.058;3.698;2023-04-03T05:04:28;13.57;;;8.32;;
70073;SDS011;57445;51.058;3.698;2023-04-03T05:06:56;12.75;;;8.40;;
70073;SDS011;57445;51.058;3.698;2023-04-03T05:09:25;11.82;;;8.10;;
70073;SDS011;57445;51.058;3.698;2023-04-03T05:11:54;11.95;;;7.97;;
70073;SDS011;57445;51.058;3.698;2023-04-03T05:14:27;11.10;;;8.50;;
70073;SDS011;57445;51.058;3.698;2023-04-03T05:16:57;12.48;;;8.98;;
70073;SDS011;57445;51.058;3.698;2023-04-03T05:19:25;14.38;;;8.70;;
70073;SDS011;57445;51.058;3.698;2023-04-03T05:21:53;11.77;;;8.60;;
70073;SDS011;57445;51.058;3.698;2023-04-03T05:24:20;11.60;;;9.05;;
70073;SDS011;57445;51.058;3.698;2023-04-03T05:26:54;12.95;;;8.52;;
70073;SDS011;57445;51.058;3.698;2023-04-03T05:29:22;13.45;;;8.85;;
70073;SDS011;57445;51.058;3.698;2023-04-03T05:31:50;13.07;;;8.77;;
70073;SDS011;57445;51.058;3.698;2023-04-03T05:34:18;14.27;;;9.07;;
70073;SDS011;57445;51.058;3.698;2023-04-03T05:36:50;15.45;;;9.20;;
70073;SDS011;57445;51.058;3.698;2023-04-03T05:39:23;13.93;;;9.55;;
70073;SDS011;57445;51.058;3.698;2023-04-03T05:41:57;16.70;;;9.15;;
70073;SDS011;57445;51.058;3.698;2023-04-03T05:44:25;14.77;;;9.82;;
70073;SDS011;57445;51.058;3.698;2023-04-03T05:46:52;14.20;;;9.77;;
70073;SDS011;57445;51.058;3.698;2023-04-03T05:49:20;12.80;;;9.88;;
70073;SDS011;57445;51.058;3.698;2023-04-03T05:51:48;13.88;;;9.50;;
70073;SDS011;57445;51.058;3.698;2023-04-03T05:54:23;14.48;;;9.48;;
70073;SDS011;57445;51.058;3.698;2023-04-03T05:57:00;12.82;;;9.43;;
70073;SDS011;57445;51.058;3.698;2023-04-03T05:59:28;12.25;;;8.23;;
70073;SDS011;57445;51.058;3.698;2023-04-03T06:02:00;14.38;;;7.70;;
70073;SDS011;57445;51.058;3.698;2023-04-03T06:04:36;10.32;;;7.05;;
70073;SDS011;57445;51.058;3.698;2023-04-03T06:07:09;13.20;;;7.32;;
70073;SDS011;57445;51.058;3.698;2023-04-03T06:09:43;12.38;;;7.15;;
70073;SDS011;57445;51.058;3.698;2023-04-03T06:12:13;10.90;;;6.50;;
70073;SDS011;57445;51.058;3.698;2023-04-03T06:14:45;11.77;;;6.25;;
70073;SDS011;57445;51.058;3.698;2023-04-03T06:17:13;10.75;;;6.43;;
70073;SDS011;57445;51.058;3.698;2023-04-03T06:19:48;15.18;;;8.90;;
70073;SDS011;57445;51.058;3.698;2023-04-03T06:22:15;11.93;;;6.57;;
70073;SDS011;57445;51.058;3.698;2023-04-03T06:24:47;11.07;;;6.38;;
70073;SDS011;57445;51.058;3.698;2023-04-03T06:27:17;13.35;;;5.70;;
70073;SDS011;57445;51.058;3.698;2023-04-03T06:29:44;9.00;;;5.50;;
70073;SDS011;57445;51.058;3.698;2023-04-03T06:32:12;9.23;;;5.65;;
70073;SDS011;57445;51.058;3.698;2023-04-03T06:34:40;8.57;;;5.53;;
70073;SDS011;57445;51.058;3.698;2023-04-03T06:37:10;10.13;;;5.88;;
70073;SDS011;57445;51.058;3.698;2023-04-03T06:39:45;11.75;;;6.20;;
70073;SDS011;57445;51.058;3.698;2023-04-03T06:42:19;11.35;;;5.82;;
70073;SDS011;57445;51.058;3.698;2023-04-03T06:44:47;10.55;;;5.95;;
70073;SDS011;57445;51.058;3.698;2023-04-03T06:47:19;12.45;;;6.50;;
70073;SDS011;57445;51.058;3.698;2023-04-03T06:49:48;11.05;;;6.43;;
70073;SDS011;57445;51.058;3.698;2023-04-03T06:52:16;12.43;;;6.93;;
70073;SDS011;57445;51.058;3.698;2023-04-03T06:54:48;12.55;;;6.70;;
70073;SDS011;57445;51.058;3.698;2023-04-03T06:57:18;10.65;;;6.80;;
70073;SDS011;57445;51.058;3.698;2023-04-03T06:59:46;10.10;;;6.72;;
70073;SDS011;57445;51.058;3.698;2023-04-03T07:02:14;10.73;;;6.72;;
70073;SDS011;57445;51.058;3.698;2023-04-03T07:04:42;11.73;;;6.60;;
70073;SDS011;57445;51.058;3.698;2023-04-03T07:07:14;12.95;;;6.57;;
70073;SDS011;57445;51.058;3.698;2023-04-03T07:09:47;10.07;;;5.85;;
70073;SDS011;57445;51.058;3.698;2023-04-03T07:12:15;11.23;;;6.80;;
70073;SDS011;57445;51.058;3.698;2023-04-03T07:14:49;10.50;;;6.72;;
70073;SDS011;57445;51.058;3.698;2023-04-03T07:17:17;11.00;;;6.72;;
70073;SDS011;57445;51.058;3.698;2023-04-03T07:19:45;10.10;;;6.35;;
70073;SDS011;57445;51.058;3.698;2023-04-03T07:22:17;9.68;;;6.45;;
70073;SDS011;57445;51.058;3.698;2023-04-03T07:24:45;14.98;;;7.00;;
70073;SDS011;57445;51.058;3.698;2023-04-03T07:27:17;11.10;;;6.82;;
70073;SDS011;57445;51.058;3.698;2023-04-03T07:29:51;9.38;;;6.70;;
70073;SDS011;57445;51.058;3.698;2023-04-03T07:32:19;9.52;;;6.63;;
70073;SDS011;57445;51.058;3.698;2023-04-03T07:34:51;11.45;;;6.82;;
70073;SDS011;57445;51.058;3.698;2023-04-03T07:37:19;11.43;;;6.70;;
70073;SDS011;57445;51.058;3.698;2023-04-03T07:39:47;9.60;;;6.25;;
70073;SDS011;57445;51.058;3.698;2023-04-03T07:42:19;12.02;;;7.10;;
70073;SDS011;57445;51.058;3.698;2023-04-03T07:44:47;11.35;;;6.68;;
70073;SDS011;57445;51.058;3.698;2023-04-03T07:47:16;11.00;;;7.20;;
70073;SDS011;57445;51.058;3.698;2023-04-03T07:49:48;9.18;;;7.10;;
70073;SDS011;57445;51.058;3.698;2023-04-03T07:52:21;11.43;;;7.40;;
70073;SDS011;57445;51.058;3.698;2023-04-03T07:54:53;9.30;;;7.13;;
70073;SDS011;57445;51.058;3.698;2023-04-03T07:57:21;13.52;;;7.50;;
70073;SDS011;57445;51.058;3.698;2023-04-03T07:59:53;12.38;;;7.50;;
70073;SDS011;57445;51.058;3.698;2023-04-03T08:02:26;12.93;;;7.20;;
70073;SDS011;57445;51.058;3.698;2023-04-03T08:04:59;10.80;;;7.38;;
70073;SDS011;57445;51.058;3.698;2023-04-03T08:07:26;10.85;;;7.03;;
70073;SDS011;57445;51.058;3.698;2023-04-03T08:09:54;14.25;;;7.45;;
70073;SDS011;57445;51.058;3.698;2023-04-03T08:12:22;12.68;;;7.88;;
70073;SDS011;57445;51.058;3.698;2023-04-03T08:14:58;13.25;;;8.20;;
70073;SDS011;57445;51.058;3.698;2023-04-03T08:17:33;12.73;;;8.40;;
70073;SDS011;57445;51.058;3.698;2023-04-03T08:20:02;12.98;;;8.23;;
70073;SDS011;57445;51.058;3.698;2023-04-03T08:22:32;13.32;;;7.88;;
70073;SDS011;57445;51.058;3.698;2023-04-03T08:25:00;18.35;;;7.95;;
70073;SDS011;57445;51.058;3.698;2023-04-03T08:27:32;10.57;;;7.88;;
70073;SDS011;57445;51.058;3.698;2023-04-03T08:30:00;11.43;;;7.50;;
70073;SDS011;57445;51.058;3.698;2023-04-03T08:32:29;14.23;;;8.30;;
70073;SDS011;57445;51.058;3.698;2023-04-03T08:34:58;12.93;;;8.07;;
70073;SDS011;57445;51.058;3.698;2023-04-03T08:37:25;15.25;;;7.88;;
70073;SDS011;57445;51.058;3.698;2023-04-03T08:39:58;19.58;;;7.63;;
70073;SDS011;57445;51.058;3.698;2023-04-03T08:42:30;13.02;;;7.30;;
70073;SDS011;57445;51.058;3.698;2023-04-03T08:45:10;11.60;;;6.65;;
70073;SDS011;57445;51.058;3.698;2023-04-03T08:47:47;11.57;;;6.75;;
70073;SDS011;57445;51.058;3.698;2023-04-03T08:50:25;13.40;;;7.10;;
70073;SDS011;57445;51.058;3.698;2023-04-03T08:52:57;12.43;;;6.25;;
70073;SDS011;57445;51.058;3.698;2023-04-03T08:55:31;10.90;;;6.13;;
70073;SDS011;57445;51.058;3.698;2023-04-03T08:58:06;9.65;;;6.00;;
70073;SDS011;57445;51.058;3.698;2023-04-03T09:00:44;11.07;;;5.75;;
70073;SDS011;57445;51.058;3.698;2023-04-03T09:03:20;10.07;;;5.00;;
70073;SDS011;57445;51.058;3.698;2023-04-03T09:05:55;8.57;;;4.65;;
70073;SDS011;57445;51.058;3.698;2023-04-03T09:08:27;8.32;;;4.57;;
70073;SDS011;57445;51.058;3.698;2023-04-03T09:11:06;10.07;;;4.47;;
70073;SDS011;57445;51.058;3.698;2023-04-03T09:13:41;8.48;;;3.95;;
70073;SDS011;57445;51.058;3.698;2023-04-03T09:16:19;9.80;;;4.20;;
70073;SDS011;57445;51.058;3.698;2023-04-03T09:19:02;9.50;;;4.10;;
70073;SDS011;57445;51.058;3.698;2023-04-03T09:21:46;8.38;;;4.30;;
70073;SDS011;57445;51.058;3.698;2023-04-03T09:24:16;10.93;;;4.43;;
70073;SDS011;57445;51.058;3.698;2023-04-03T09:26:45;9.82;;;3.97;;
70073;SDS011;57445;51.058;3.698;2023-04-03T09:29:22;8.20;;;3.67;;
70073;SDS011;57445;51.058;3.698;2023-04-03T09:31:56;6.82;;;3.58;;
70073;SDS011;57445;51.058;3.698;2023-04-03T09:34:31;6.93;;;3.30;;
70073;SDS011;57445;51.058;3.698;2023-04-03T09:37:10;8.13;;;3.45;;
70073;SDS011;57445;51.058;3.698;2023-04-03T09:40:03;8.10;;;3.58;;
70073;SDS011;57445;51.058;3.698;2023-04-03T09:42:38;7.28;;;3.40;;
70073;SDS011;57445;51.058;3.698;2023-04-03T09:45:21;6.97;;;3.58;;
70073;SDS011;57445;51.058;3.698;2023-04-03T09:48:03;7.72;;;3.28;;
70073;SDS011;57445;51.058;3.698;2023-04-03T09:50:39;6.55;;;3.50;;
70073;SDS011;57445;51.058;3.698;2023-04-03T09:53:31;9.50;;;3.40;;
70073;SDS011;57445;51.058;3.698;2023-04-03T09:56:03;7.10;;;3.60;;
70073;SDS011;57445;51.058;3.698;2023-04-03T09:58:51;6.50;;;3.50;;
70073;SDS011;57445;51.058;3.698;2023-04-03T10:01:35;9.18;;;3.67;;
70073;SDS011;57445;51.058;3.698;2023-04-03T10:04:05;8.25;;;4.03;;
70073;SDS011;57445;51.058;3.698;2023-04-03T10:06:36;7.05;;;3.30;;
70073;SDS011;57445;51.058;3.698;2023-04-03T10:09:17;6.82;;;3.25;;
70073;SDS011;57445;51.058;3.698;2023-04-03T10:14:38;7.30;;;3.20;;
70073;SDS011;57445;51.058;3.698;2023-04-03T10:17:14;7.18;;;3.33;;
70073;SDS011;57445;51.058;3.698;2023-04-03T10:19:49;7.18;;;2.95;;
70073;SDS011;57445;51.058;3.698;2023-04-03T10:22:28;6.70;;;3.13;;
70073;SDS011;57445;51.058;3.698;2023-04-03T10:25:12;6.63;;;3.35;;
70073;SDS011;57445;51.058;3.698;2023-04-03T10:27:49;7.13;;;3.28;;
70073;SDS011;57445;51.058;3.698;2023-04-03T10:30:31;9.02;;;3.67;;
70073;SDS011;57445;51.058;3.698;2023-04-03T10:33:07;8.65;;;3.33;;
70073;SDS011;57445;51.058;3.698;2023-04-03T10:35:47;6.05;;;2.90;;
70073;SDS011;57445;51.058;3.698;2023-04-03T10:38:27;9.07;;;3.35;;
70073;SDS011;57445;51.058;3.698;2023-04-03T10:41:10;7.97;;;3.10;;
70073;SDS011;57445;51.058;3.698;2023-04-03T10:43:49;5.72;;;2.90;;
70073;SDS011;57445;51.058;3.698;2023-04-03T10:46:28;9.45;;;3.60;;
70073;SDS011;57445;51.058;3.698;2023-04-03T10:49:13;6.38;;;3.20;;
70073;SDS011;57445;51.058;3.698;2023-04-03T10:51:54;5.82;;;2.70;;
70073;SDS011;57445;51.058;3.698;2023-04-03T10:54:36;8.50;;;2.70;;
70073;SDS011;57445;51.058;3.698;2023-04-03T10:57:08;7.18;;;2.25;;
70073;SDS011;57445;51.058;3.698;2023-04-03T10:59:38;6.68;;;2.42;;
70073;SDS011;57445;51.058;3.698;2023-04-03T11:02:13;5.28;;;2.05;;
70073;SDS011;57445;51.058;3.698;2023-04-03T11:04:47;8.25;;;2.72;;
70073;SDS011;57445;51.058;3.698;2023-04-03T11:07:24;8.10;;;2.40;;
70073;SDS011;57445;51.058;3.698;2023-04-03T11:10:03;6.30;;;2.40;;
70073;SDS011;57445;51.058;3.698;2023-04-03T11:12:42;8.27;;;2.58;;
70073;SDS011;57445;51.058;3.698;2023-04-03T11:15:13;7.28;;;2.30;;
70073;SDS011;57445;51.058;3.698;2023-04-03T11:17:49;5.55;;;2.10;;
70073;SDS011;57445;51.058;3.698;2023-04-03T11:20:21;6.10;;;2.42;;
70073;SDS011;57445;51.058;3.698;2023-04-03T11:22:58;5.33;;;2.07;;
70073;SDS011;57445;51.058;3.698;2023-04-03T11:25:30;5.28;;;2.08;;
70073;SDS011;57445;51.058;3.698;2023-04-03T11:28:11;5.40;;;1.92;;
70073;SDS011;57445;51.058;3.698;2023-04-03T11:30:42;4.85;;;1.98;;
70073;SDS011;57445;51.058;3.698;2023-04-03T11:33:24;4.93;;;1.83;;
70073;SDS011;57445;51.058;3.698;2023-04-03T11:36:09;4.20;;;2.00;;
70073;SDS011;57445;51.058;3.698;2023-04-03T11:38:49;7.28;;;1.92;;
70073;SDS011;57445;51.058;3.698;2023-04-03T11:41:24;8.23;;;2.10;;
70073;SDS011;57445;51.058;3.698;2023-04-03T11:43:59;7.22;;;1.75;;
70073;SDS011;57445;51.058;3.698;2023-04-03T11:58:22;7.72;;;2.00;;
70073;SDS011;57445;51.058;3.698;2023-04-03T12:01:01;4.18;;;1.90;;
70073;SDS011;57445;51.058;3.698;2023-04-03T12:06:42;4.03;;;1.58;;
70073;SDS011;57445;51.058;3.698;2023-04-03T12:09:32;5.65;;;1.80;;
70073;SDS011;57445;51.058;3.698;2023-04-03T12:12:26;3.85;;;1.67;;
70073;SDS011;57445;51.058;3.698;2023-04-03T12:15:11;6.57;;;2.60;;
70073;SDS011;57445;51.058;3.698;2023-04-03T12:17:55;10.02;;;2.30;;
70073;SDS011;57445;51.058;3.698;2023-04-03T12:20:51;3.42;;;1.40;;
70073;SDS011;57445;51.058;3.698;2023-04-03T12:23:26;6.10;;;2.00;;
70073;SDS011;57445;51.058;3.698;2023-04-03T12:25:59;6.30;;;2.28;;
70073;SDS011;57445;51.058;3.698;2023-04-03T12:28:38;5.88;;;1.98;;
70073;SDS011;57445;51.058;3.698;2023-04-03T12:31:11;7.43;;;2.47;;
70073;SDS011;57445;51.058;3.698;2023-04-03T12:33:46;5.97;;;2.42;;
70073;SDS011;57445;51.058;3.698;2023-04-03T12:36:34;6.97;;;2.28;;
70073;SDS011;57445;51.058;3.698;2023-04-03T12:44:48;6.78;;;2.55;;
70073;SDS011;57445;51.058;3.698;2023-04-03T12:47:23;6.05;;;1.90;;
70073;SDS011;57445;51.058;3.698;2023-04-03T12:50:00;8.45;;;2.30;;
70073;SDS011;57445;51.058;3.698;2023-04-03T12:52:35;4.80;;;2.20;;
70073;SDS011;57445;51.058;3.698;2023-04-03T12:55:15;6.57;;;2.40;;
70073;SDS011;57445;51.058;3.698;2023-04-03T13:00:22;5.60;;;2.20;;
70073;SDS011;57445;51.058;3.698;2023-04-03T13:02:59;5.90;;;1.90;;
70073;SDS011;57445;51.058;3.698;2023-04-03T13:05:32;5.90;;;2.30;;
70073;SDS011;57445;51.058;3.698;2023-04-03T13:08:08;5.03;;;2.22;;
70073;SDS011;57445;51.058;3.698;2023-04-03T13:10:49;6.38;;;2.17;;
70073;SDS011;57445;51.058;3.698;2023-04-03T13:13:26;6.32;;;2.15;;
70073;SDS011;57445;51.058;3.698;2023-04-03T13:15:59;7.22;;;2.15;;
70073;SDS011;57445;51.058;3.698;2023-04-03T13:18:39;4.43;;;1.95;;
70073;SDS011;57445;51.058;3.698;2023-04-03T13:21:15;3.90;;;1.67;;
70073;SDS011;57445;51.058;3.698;2023-04-03T13:23:46;4.72;;;1.88;;
70073;SDS011;57445;51.058;3.698;2023-04-03T13:26:17;4.00;;;2.00;;
70073;SDS011;57445;51.058;3.698;2023-04-03T13:28:47;4.28;;;1.80;;
70073;SDS011;57445;51.058;3.698;2023-04-03T13:31:22;8.27;;;2.10;;
70073;SDS011;57445;51.058;3.698;2023-04-03T13:33:58;8.60;;;2.17;;
70073;SDS011;57445;51.058;3.698;2023-04-03T13:36:36;4.70;;;2.00;;
70073;SDS011;57445;51.058;3.698;2023-04-03T13:39:07;4.32;;;2.25;;
70073;SDS011;57445;51.058;3.698;2023-04-03T13:41:50;4.20;;;1.90;;
70073;SDS011;57445;51.058;3.698;2023-04-03T13:44:28;4.45;;;1.60;;
70073;SDS011;57445;51.058;3.698;2023-04-03T13:47:15;7.88;;;2.10;;
70073;SDS011;57445;51.058;3.698;2023-04-03T13:52:45;4.20;;;2.00;;
70073;SDS011;57445;51.058;3.698;2023-04-03T13:55:21;4.85;;;1.73;;
70073;SDS011;57445;51.058;3.698;2023-04-03T13:57:53;5.90;;;2.00;;
70073;SDS011;57445;51.058;3.698;2023-04-03T14:05:45;3.38;;;1.48;;
70073;SDS011;57445;51.058;3.698;2023-04-03T14:08:14;4.72;;;1.50;;
70073;SDS011;57445;51.058;3.698;2023-04-03T14:10:43;4.03;;;1.40;;
70073;SDS011;57445;51.058;3.698;2023-04-03T14:13:14;2.80;;;1.58;;
70073;SDS011;57445;51.058;3.698;2023-04-03T14:15:44;3.83;;;1.50;;
70073;SDS011;57445;51.058;3.698;2023-04-03T14:18:13;4.60;;;1.67;;
70073;SDS011;57445;51.058;3.698;2023-04-03T14:20:43;3.75;;;1.67;;
70073;SDS011;57445;51.058;3.698;2023-04-03T14:23:17;5.78;;;1.90;;
70073;SDS011;57445;51.058;3.698;2023-04-03T14:25:49;3.20;;;1.60;;
70073;SDS011;57445;51.058;3.698;2023-04-03T14:28:22;5.35;;;1.70;;
70073;SDS011;57445;51.058;3.698;2023-04-03T14:30:54;3.60;;;1.70;;
70073;SDS011;57445;51.058;3.698;2023-04-03T14:33:27;8.63;;;2.28;;
70073;SDS011;57445;51.058;3.698;2023-04-03T14:36:10;3.20;;;1.55;;
70073;SDS011;57445;51.058;3.698;2023-04-03T14:38:45;8.88;;;1.77;;
70073;SDS011;57445;51.058;3.698;2023-04-03T14:41:19;5.13;;;1.90;;
70073;SDS011;57445;51.058;3.698;2023-04-03T14:43:49;4.75;;;1.73;;
70073;SDS011;57445;51.058;3.698;2023-04-03T14:46:17;7.22;;;5.43;;
70073;SDS011;57445;51.058;3.698;2023-04-03T14:48:48;4.13;;;1.67;;
70073;SDS011;57445;51.058;3.698;2023-04-03T14:51:16;5.28;;;1.90;;
70073;SDS011;57445;51.058;3.698;2023-04-03T14:53:46;4.63;;;1.80;;
70073;SDS011;57445;51.058;3.698;2023-04-03T14:56:21;7.53;;;2.00;;
70073;SDS011;57445;51.058;3.698;2023-04-03T14:58:57;5.88;;;1.95;;
70073;SDS011;57445;51.058;3.698;2023-04-03T15:01:31;4.85;;;1.70;;
70073;SDS011;57445;51.058;3.698;2023-04-03T15:03:59;6.55;;;2.10;;
70073;SDS011;57445;51.058;3.698;2023-04-03T15:06:31;4.25;;;2.00;;
70073;SDS011;57445;51.058;3.698;2023-04-03T15:09:02;11.73;;;9.32;;
70073;SDS011;57445;51.058;3.698;2023-04-03T15:11:34;6.97;;;2.10;;
70073;SDS011;57445;51.058;3.698;2023-04-03T15:14:02;7.05;;;2.20;;
70073;SDS011;57445;51.058;3.698;2023-04-03T15:16:30;3.97;;;1.83;;
70073;SDS011;57445;51.058;3.698;2023-04-03T15:19:02;7.03;;;1.73;;
70073;SDS011;57445;51.058;3.698;2023-04-03T15:21:31;5.28;;;2.00;;
70073;SDS011;57445;51.058;3.698;2023-04-03T15:23:58;4.80;;;2.00;;
70073;SDS011;57445;51.058;3.698;2023-04-03T15:26:32;4.10;;;1.90;;
70073;SDS011;57445;51.058;3.698;2023-04-03T15:29:06;3.85;;;1.73;;
70073;SDS011;57445;51.058;3.698;2023-04-03T15:31:41;3.97;;;1.77;;
70073;SDS011;57445;51.058;3.698;2023-04-03T15:34:09;5.43;;;1.65;;
70073;SDS011;57445;51.058;3.698;2023-04-03T15:36:36;3.80;;;1.70;;
70073;SDS011;57445;51.058;3.698;2023-04-03T15:39:09;5.82;;;1.77;;
70073;SDS011;57445;51.058;3.698;2023-04-03T15:41:38;3.88;;;1.80;;
70073;SDS011;57445;51.058;3.698;2023-04-03T15:44:11;5.32;;;2.15;;
70073;SDS011;57445;51.058;3.698;2023-04-03T15:46:44;4.18;;;1.75;;
70073;SDS011;57445;51.058;3.698;2023-04-03T15:49:17;5.93;;;2.58;;
70073;SDS011;57445;51.058;3.698;2023-04-03T15:51:46;5.15;;;1.77;;
70073;SDS011;57445;51.058;3.698;2023-04-03T15:54:14;5.30;;;2.08;;
70073;SDS011;57445;51.058;3.698;2023-04-03T15:56:49;5.95;;;1.70;;